Terminal Aerodrome Forecast
Issued by NWS Greer, SC

Home | Current Version | Previous Version | Text Only | Print | Product List | Glossary On
Versions: 1 2 3 4 5 6 7 8 9 10 11 12 13 14 15 16 17 18 19 20 21 22 23 24 25 26 27 28 29 30 31 32 33 34 35 36 37 38 39 40 41 42 43 44 45 46
000
FTUS42 KGSP 020500
TAFAVL
TAF
KAVL 020535Z 0206/0306 00000KT P6SM SCT250
     FM020700 00000KT 5SM BR FEW010 SCT250
     FM020900 00000KT 1SM BR OVC002
      TEMPO 0209/0213 1/4SM FG VV001
     FM021300 00000KT 4SM BR BKN015
     FM021400 35005KT P6SM FEW050 SCT250
     FM021800 32006KT P6SM BKN050 PROB30 0218/0224 4SM TSRA BKN040CB
     FM030000 33003KT P6SM BKN050 PROB30 0300/0306 4SM TSRA
      BKN040CB=

USA.gov is the U.S. government's official web portal to all federal, state and local government web resources and services.